Terminal Aerodrome Forecast
Issued by NWS Sioux Falls, SD

Home | Current Version | Previous Version | Graphics & Text | Print | Product List | Glossary Off
Versions: 1 2 3 4 5 6 7 8 9 10 11 12 13 14 15 16 17 18 19

000
FTUS43 KFSD 290654 AAA
TAFFSD
TAF AMD
KFSD 290654Z 2907/3006 17009KT P6SM SCT040 BKN200
      TEMPO 2907/2910 P6SM -TSRA BKN060CB
     FM291200 VRB04KT 6SM SHRA BKN040 BKN080
     FM291500 01010KT 6SM -RA OVC025
     FM291700 03015G24KT P6SM BKN020
     FM300000 02012KT P6SM SCT030 SCT150=

USA.gov is the U.S. government's official web portal to all federal, state and local government web resources and services.